sensor_id;sensor_type;location;lat;lon;timestamp;temperature;humidity
11597;DHT22;5854;48.072;16.286;2023-05-14T00:00:13;11.90;72.10
11597;DHT22;5854;48.072;16.286;2023-05-14T00:02:41;11.80;71.40
11597;DHT22;5854;48.072;16.286;2023-05-14T00:05:08;11.90;74.00
11597;DHT22;5854;48.072;16.286;2023-05-14T00:07:36;11.90;72.70
11597;DHT22;5854;48.072;16.286;2023-05-14T00:10:03;11.90;72.20
11597;DHT22;5854;48.072;16.286;2023-05-14T00:12:32;11.90;73.10
11597;DHT22;5854;48.072;16.286;2023-05-14T00:14:59;11.90;71.70
11597;DHT22;5854;48.072;16.286;2023-05-14T00:17:26;11.90;70.90
11597;DHT22;5854;48.072;16.286;2023-05-14T00:19:53;11.90;72.70
11597;DHT22;5854;48.072;16.286;2023-05-14T00:22:21;11.80;71.10
11597;DHT22;5854;48.072;16.286;2023-05-14T00:24:48;11.80;69.90
11597;DHT22;5854;48.072;16.286;2023-05-14T00:27:15;11.80;75.90
11597;DHT22;5854;48.072;16.286;2023-05-14T00:29:43;11.80;74.00
11597;DHT22;5854;48.072;16.286;2023-05-14T00:32:11;11.90;71.40
11597;DHT22;5854;48.072;16.286;2023-05-14T00:34:38;11.80;70.70
11597;DHT22;5854;48.072;16.286;2023-05-14T00:37:05;11.80;72.40
11597;DHT22;5854;48.072;16.286;2023-05-14T00:39:32;11.90;70.90
11597;DHT22;5854;48.072;16.286;2023-05-14T00:41:59;11.80;71.30
11597;DHT22;5854;48.072;16.286;2023-05-14T00:44:26;11.80;71.80
11597;DHT22;5854;48.072;16.286;2023-05-14T00:46:55;11.80;70.60
11597;DHT22;5854;48.072;16.286;2023-05-14T00:49:22;11.90;73.90
11597;DHT22;5854;48.072;16.286;2023-05-14T00:51:50;11.80;73.80
11597;DHT22;5854;48.072;16.286;2023-05-14T00:54:17;11.80;70.00
11597;DHT22;5854;48.072;16.286;2023-05-14T00:56:45;11.80;69.20
11597;DHT22;5854;48.072;16.286;2023-05-14T00:59:13;11.80;71.10
11597;DHT22;5854;48.072;16.286;2023-05-14T01:01:40;11.80;71.50
11597;DHT22;5854;48.072;16.286;2023-05-14T01:04:09;11.80;72.00
11597;DHT22;5854;48.072;16.286;2023-05-14T01:06:44;11.80;71.00
11597;DHT22;5854;48.072;16.286;2023-05-14T01:09:20;11.80;73.90
11597;DHT22;5854;48.072;16.286;2023-05-14T01:11:55;11.80;72.40
11597;DHT22;5854;48.072;16.286;2023-05-14T01:14:31;11.80;72.30
11597;DHT22;5854;48.072;16.286;2023-05-14T01:17:02;11.80;74.40
11597;DHT22;5854;48.072;16.286;2023-05-14T01:19:36;11.80;87.00
11597;DHT22;5854;48.072;16.286;2023-05-14T01:22:07;11.70;93.00
11597;DHT22;5854;48.072;16.286;2023-05-14T01:24:34;11.70;83.90
11597;DHT22;5854;48.072;16.286;2023-05-14T01:27:06;11.60;83.10
11597;DHT22;5854;48.072;16.286;2023-05-14T01:29:39;11.70;86.80
11597;DHT22;5854;48.072;16.286;2023-05-14T01:32:08;11.60;83.90
11597;DHT22;5854;48.072;16.286;2023-05-14T01:34:36;11.60;74.80
11597;DHT22;5854;48.072;16.286;2023-05-14T01:37:07;11.70;79.30
11597;DHT22;5854;48.072;16.286;2023-05-14T01:39:36;11.70;79.00
11597;DHT22;5854;48.072;16.286;2023-05-14T01:42:04;11.70;89.40
11597;DHT22;5854;48.072;16.286;2023-05-14T01:44:32;11.70;92.10
11597;DHT22;5854;48.072;16.286;2023-05-14T01:47:00;11.70;87.90
11597;DHT22;5854;48.072;16.286;2023-05-14T01:49:28;11.60;86.80
11597;DHT22;5854;48.072;16.286;2023-05-14T01:51:55;11.60;79.70
11597;DHT22;5854;48.072;16.286;2023-05-14T01:54:23;11.70;88.80
11597;DHT22;5854;48.072;16.286;2023-05-14T01:56:50;11.60;81.50
11597;DHT22;5854;48.072;16.286;2023-05-14T01:59:17;11.60;77.50
11597;DHT22;5854;48.072;16.286;2023-05-14T02:01:44;11.60;89.80
11597;DHT22;5854;48.072;16.286;2023-05-14T02:04:11;11.60;92.60
11597;DHT22;5854;48.072;16.286;2023-05-14T02:06:38;11.50;88.00
11597;DHT22;5854;48.072;16.286;2023-05-14T02:09:05;11.50;91.50
11597;DHT22;5854;48.072;16.286;2023-05-14T02:11:34;11.50;86.90
11597;DHT22;5854;48.072;16.286;2023-05-14T02:14:01;11.50;79.30
11597;DHT22;5854;48.072;16.286;2023-05-14T02:16:28;11.50;83.20
11597;DHT22;5854;48.072;16.286;2023-05-14T02:18:55;11.40;75.90
11597;DHT22;5854;48.072;16.286;2023-05-14T02:21:22;11.50;74.60
11597;DHT22;5854;48.072;16.286;2023-05-14T02:23:49;11.50;77.50
11597;DHT22;5854;48.072;16.286;2023-05-14T02:26:17;11.50;81.40
11597;DHT22;5854;48.072;16.286;2023-05-14T02:28:45;11.50;78.50
11597;DHT22;5854;48.072;16.286;2023-05-14T02:31:12;11.50;75.40
11597;DHT22;5854;48.072;16.286;2023-05-14T02:33:40;11.50;78.70
11597;DHT22;5854;48.072;16.286;2023-05-14T02:36:07;11.50;75.70
11597;DHT22;5854;48.072;16.286;2023-05-14T02:38:34;11.50;75.50
11597;DHT22;5854;48.072;16.286;2023-05-14T02:41:01;11.50;87.20
11597;DHT22;5854;48.072;16.286;2023-05-14T02:43:28;11.50;77.70
11597;DHT22;5854;48.072;16.286;2023-05-14T02:45:56;11.50;80.00
11597;DHT22;5854;48.072;16.286;2023-05-14T02:48:23;11.60;77.00
11597;DHT22;5854;48.072;16.286;2023-05-14T02:50:50;11.60;72.90
11597;DHT22;5854;48.072;16.286;2023-05-14T02:53:17;11.60;71.80
11597;DHT22;5854;48.072;16.286;2023-05-14T02:55:44;11.60;75.30
11597;DHT22;5854;48.072;16.286;2023-05-14T02:58:11;11.60;70.80
11597;DHT22;5854;48.072;16.286;2023-05-14T03:00:39;11.60;77.80
11597;DHT22;5854;48.072;16.286;2023-05-14T03:03:08;11.60;78.70
11597;DHT22;5854;48.072;16.286;2023-05-14T03:05:35;11.50;87.10
11597;DHT22;5854;48.072;16.286;2023-05-14T03:08:02;11.50;85.50
11597;DHT22;5854;48.072;16.286;2023-05-14T03:10:29;11.50;83.40
11597;DHT22;5854;48.072;16.286;2023-05-14T03:12:57;11.50;93.70
11597;DHT22;5854;48.072;16.286;2023-05-14T03:15:24;11.40;86.20
11597;DHT22;5854;48.072;16.286;2023-05-14T03:17:51;11.40;80.10
11597;DHT22;5854;48.072;16.286;2023-05-14T03:20:19;11.50;83.60
11597;DHT22;5854;48.072;16.286;2023-05-14T03:22:47;11.50;83.40
11597;DHT22;5854;48.072;16.286;2023-05-14T03:25:14;11.50;87.50
11597;DHT22;5854;48.072;16.286;2023-05-14T03:27:41;11.40;89.80
11597;DHT22;5854;48.072;16.286;2023-05-14T03:30:09;11.40;89.20
11597;DHT22;5854;48.072;16.286;2023-05-14T03:32:37;11.40;88.80
11597;DHT22;5854;48.072;16.286;2023-05-14T03:35:05;11.40;88.40
11597;DHT22;5854;48.072;16.286;2023-05-14T03:37:34;11.40;90.50
11597;DHT22;5854;48.072;16.286;2023-05-14T03:40:01;11.40;90.50
11597;DHT22;5854;48.072;16.286;2023-05-14T03:42:28;11.30;88.60
11597;DHT22;5854;48.072;16.286;2023-05-14T03:44:55;11.30;89.00
11597;DHT22;5854;48.072;16.286;2023-05-14T03:47:22;11.30;88.50
11597;DHT22;5854;48.072;16.286;2023-05-14T03:49:49;11.30;87.90
11597;DHT22;5854;48.072;16.286;2023-05-14T03:52:16;11.30;90.40
11597;DHT22;5854;48.072;16.286;2023-05-14T03:54:45;11.30;89.10
11597;DHT22;5854;48.072;16.286;2023-05-14T03:57:12;11.30;85.40
11597;DHT22;5854;48.072;16.286;2023-05-14T03:59:39;11.30;81.60
11597;DHT22;5854;48.072;16.286;2023-05-14T04:02:06;11.30;85.20
11597;DHT22;5854;48.072;16.286;2023-05-14T04:04:33;11.30;85.10
11597;DHT22;5854;48.072;16.286;2023-05-14T04:07:00;11.30;91.10
11597;DHT22;5854;48.072;16.286;2023-05-14T04:09:27;11.30;80.00
11597;DHT22;5854;48.072;16.286;2023-05-14T04:11:55;11.30;82.80
11597;DHT22;5854;48.072;16.286;2023-05-14T04:14:22;11.30;88.90
11597;DHT22;5854;48.072;16.286;2023-05-14T04:16:49;11.30;85.20
11597;DHT22;5854;48.072;16.286;2023-05-14T04:19:16;11.30;79.80
11597;DHT22;5854;48.072;16.286;2023-05-14T04:21:43;11.30;88.40
11597;DHT22;5854;48.072;16.286;2023-05-14T04:24:10;11.20;91.80
11597;DHT22;5854;48.072;16.286;2023-05-14T04:26:37;11.20;86.60
11597;DHT22;5854;48.072;16.286;2023-05-14T04:29:06;11.10;86.00
11597;DHT22;5854;48.072;16.286;2023-05-14T04:31:33;11.20;85.60
11597;DHT22;5854;48.072;16.286;2023-05-14T04:34:00;11.30;82.30
11597;DHT22;5854;48.072;16.286;2023-05-14T04:36:27;11.30;84.60
11597;DHT22;5854;48.072;16.286;2023-05-14T04:38:54;11.30;85.40
11597;DHT22;5854;48.072;16.286;2023-05-14T04:41:21;11.30;81.10
11597;DHT22;5854;48.072;16.286;2023-05-14T04:43:49;11.30;89.00
11597;DHT22;5854;48.072;16.286;2023-05-14T04:46:17;11.30;79.40
11597;DHT22;5854;48.072;16.286;2023-05-14T04:48:45;11.40;74.00
11597;DHT22;5854;48.072;16.286;2023-05-14T04:51:12;11.50;86.30
11597;DHT22;5854;48.072;16.286;2023-05-14T04:53:39;11.40;74.50
11597;DHT22;5854;48.072;16.286;2023-05-14T04:56:06;11.50;75.70
11597;DHT22;5854;48.072;16.286;2023-05-14T04:58:33;11.50;77.90
11597;DHT22;5854;48.072;16.286;2023-05-14T05:01:01;11.50;76.30
11597;DHT22;5854;48.072;16.286;2023-05-14T05:03:31;11.50;84.00
11597;DHT22;5854;48.072;16.286;2023-05-14T05:05:58;11.40;76.90
11597;DHT22;5854;48.072;16.286;2023-05-14T05:08:25;11.40;77.50
11597;DHT22;5854;48.072;16.286;2023-05-14T05:10:52;11.50;80.00
11597;DHT22;5854;48.072;16.286;2023-05-14T05:13:19;11.50;81.60
11597;DHT22;5854;48.072;16.286;2023-05-14T05:15:46;11.50;81.50
11597;DHT22;5854;48.072;16.286;2023-05-14T05:18:13;11.50;80.30
11597;DHT22;5854;48.072;16.286;2023-05-14T05:20:41;11.50;85.80
11597;DHT22;5854;48.072;16.286;2023-05-14T05:23:08;11.50;89.90
11597;DHT22;5854;48.072;16.286;2023-05-14T05:25:36;11.40;85.40
11597;DHT22;5854;48.072;16.286;2023-05-14T05:28:03;11.50;87.00
11597;DHT22;5854;48.072;16.286;2023-05-14T05:30:30;11.50;89.10
11597;DHT22;5854;48.072;16.286;2023-05-14T05:32:57;11.50;84.40
11597;DHT22;5854;48.072;16.286;2023-05-14T05:35:24;11.50;76.90
11597;DHT22;5854;48.072;16.286;2023-05-14T05:37:52;11.50;76.50
11597;DHT22;5854;48.072;16.286;2023-05-14T05:40:19;11.60;78.90
11597;DHT22;5854;48.072;16.286;2023-05-14T05:42:47;11.60;77.00
11597;DHT22;5854;48.072;16.286;2023-05-14T05:45:14;11.50;78.20
11597;DHT22;5854;48.072;16.286;2023-05-14T05:47:41;11.50;82.90
11597;DHT22;5854;48.072;16.286;2023-05-14T05:50:09;11.50;85.40
11597;DHT22;5854;48.072;16.286;2023-05-14T05:52:36;11.40;81.60
11597;DHT22;5854;48.072;16.286;2023-05-14T05:55:06;11.40;77.20
11597;DHT22;5854;48.072;16.286;2023-05-14T05:57:33;11.40;76.80
11597;DHT22;5854;48.072;16.286;2023-05-14T06:00:00;11.30;79.70
11597;DHT22;5854;48.072;16.286;2023-05-14T06:02:37;11.30;74.00
11597;DHT22;5854;48.072;16.286;2023-05-14T06:05:05;11.20;80.20
11597;DHT22;5854;48.072;16.286;2023-05-14T06:07:33;11.20;79.80
11597;DHT22;5854;48.072;16.286;2023-05-14T06:10:01;11.20;79.00
11597;DHT22;5854;48.072;16.286;2023-05-14T06:12:29;11.20;85.20
11597;DHT22;5854;48.072;16.286;2023-05-14T06:14:56;11.20;86.00
11597;DHT22;5854;48.072;16.286;2023-05-14T06:17:24;11.20;87.40
11597;DHT22;5854;48.072;16.286;2023-05-14T06:19:51;11.20;85.20
11597;DHT22;5854;48.072;16.286;2023-05-14T06:22:18;11.20;80.20
11597;DHT22;5854;48.072;16.286;2023-05-14T06:24:47;11.30;80.30
11597;DHT22;5854;48.072;16.286;2023-05-14T06:27:14;11.30;80.10
11597;DHT22;5854;48.072;16.286;2023-05-14T06:29:42;11.30;80.20
11597;DHT22;5854;48.072;16.286;2023-05-14T06:32:09;11.20;82.60
11597;DHT22;5854;48.072;16.286;2023-05-14T06:34:39;11.20;84.80
11597;DHT22;5854;48.072;16.286;2023-05-14T06:37:07;11.30;83.00
11597;DHT22;5854;48.072;16.286;2023-05-14T06:39:34;11.20;81.80
11597;DHT22;5854;48.072;16.286;2023-05-14T06:42:01;11.20;84.90
11597;DHT22;5854;48.072;16.286;2023-05-14T06:44:28;11.20;86.00
11597;DHT22;5854;48.072;16.286;2023-05-14T06:46:57;11.10;77.60
11597;DHT22;5854;48.072;16.286;2023-05-14T06:49:24;11.10;78.40
11597;DHT22;5854;48.072;16.286;2023-05-14T06:51:51;11.10;76.50
11597;DHT22;5854;48.072;16.286;2023-05-14T06:54:18;11.10;79.70
11597;DHT22;5854;48.072;16.286;2023-05-14T06:56:45;11.00;81.40
11597;DHT22;5854;48.072;16.286;2023-05-14T06:59:12;11.10;83.00
11597;DHT22;5854;48.072;16.286;2023-05-14T07:01:39;11.00;87.40
11597;DHT22;5854;48.072;16.286;2023-05-14T07:04:08;11.00;81.50
11597;DHT22;5854;48.072;16.286;2023-05-14T07:06:35;10.90;84.80
11597;DHT22;5854;48.072;16.286;2023-05-14T07:09:02;10.90;87.50
11597;DHT22;5854;48.072;16.286;2023-05-14T07:11:29;11.00;86.70
11597;DHT22;5854;48.072;16.286;2023-05-14T07:13:56;11.00;86.50
11597;DHT22;5854;48.072;16.286;2023-05-14T07:16:23;11.00;90.80
11597;DHT22;5854;48.072;16.286;2023-05-14T07:18:50;10.90;86.10
11597;DHT22;5854;48.072;16.286;2023-05-14T07:21:19;11.00;88.40
11597;DHT22;5854;48.072;16.286;2023-05-14T07:23:46;11.00;90.20
11597;DHT22;5854;48.072;16.286;2023-05-14T07:26:13;11.00;89.30
11597;DHT22;5854;48.072;16.286;2023-05-14T07:28:40;11.00;87.20
11597;DHT22;5854;48.072;16.286;2023-05-14T07:31:07;11.00;91.90
11597;DHT22;5854;48.072;16.286;2023-05-14T07:33:34;10.90;89.10
11597;DHT22;5854;48.072;16.286;2023-05-14T07:36:01;10.80;88.10
11597;DHT22;5854;48.072;16.286;2023-05-14T07:38:31;10.90;91.30
11597;DHT22;5854;48.072;16.286;2023-05-14T07:40:58;11.00;91.30
11597;DHT22;5854;48.072;16.286;2023-05-14T07:43:25;11.00;84.90
11597;DHT22;5854;48.072;16.286;2023-05-14T07:45:52;10.90;87.10
11597;DHT22;5854;48.072;16.286;2023-05-14T07:48:20;10.90;86.90
11597;DHT22;5854;48.072;16.286;2023-05-14T07:50:47;10.90;84.60
11597;DHT22;5854;48.072;16.286;2023-05-14T07:53:16;10.90;88.10
11597;DHT22;5854;48.072;16.286;2023-05-14T07:55:45;10.90;87.10
11597;DHT22;5854;48.072;16.286;2023-05-14T07:58:12;11.00;86.70
11597;DHT22;5854;48.072;16.286;2023-05-14T08:00:40;10.90;89.00
11597;DHT22;5854;48.072;16.286;2023-05-14T08:03:07;10.80;89.50
11597;DHT22;5854;48.072;16.286;2023-05-14T08:05:34;10.80;88.80
11597;DHT22;5854;48.072;16.286;2023-05-14T08:08:01;10.70;88.10
11597;DHT22;5854;48.072;16.286;2023-05-14T08:10:28;10.70;92.10
11597;DHT22;5854;48.072;16.286;2023-05-14T08:12:57;10.60;94.50
11597;DHT22;5854;48.072;16.286;2023-05-14T08:15:24;10.60;94.70
11597;DHT22;5854;48.072;16.286;2023-05-14T08:17:51;10.60;89.70
11597;DHT22;5854;48.072;16.286;2023-05-14T08:20:18;10.70;92.00
11597;DHT22;5854;48.072;16.286;2023-05-14T08:22:45;10.70;88.20
11597;DHT22;5854;48.072;16.286;2023-05-14T08:25:12;10.90;91.70
11597;DHT22;5854;48.072;16.286;2023-05-14T08:27:39;10.90;89.00
11597;DHT22;5854;48.072;16.286;2023-05-14T08:30:09;10.90;88.00
11597;DHT22;5854;48.072;16.286;2023-05-14T08:35:06;10.80;93.80
11597;DHT22;5854;48.072;16.286;2023-05-14T08:37:35;10.90;81.60
11597;DHT22;5854;48.072;16.286;2023-05-14T08:40:02;10.80;87.30
11597;DHT22;5854;48.072;16.286;2023-05-14T08:42:30;10.80;82.00
11597;DHT22;5854;48.072;16.286;2023-05-14T08:45:00;10.70;90.70
11597;DHT22;5854;48.072;16.286;2023-05-14T08:47:29;10.60;86.20
11597;DHT22;5854;48.072;16.286;2023-05-14T08:50:00;10.70;87.50
11597;DHT22;5854;48.072;16.286;2023-05-14T08:52:30;10.70;90.30
11597;DHT22;5854;48.072;16.286;2023-05-14T08:54:59;10.70;87.70
11597;DHT22;5854;48.072;16.286;2023-05-14T08:57:27;10.80;80.70
11597;DHT22;5854;48.072;16.286;2023-05-14T08:59:56;10.80;82.60
11597;DHT22;5854;48.072;16.286;2023-05-14T09:02:30;10.70;91.10
11597;DHT22;5854;48.072;16.286;2023-05-14T09:04:58;10.80;86.40
11597;DHT22;5854;48.072;16.286;2023-05-14T09:07:27;10.80;90.60
11597;DHT22;5854;48.072;16.286;2023-05-14T09:09:54;10.80;86.20
11597;DHT22;5854;48.072;16.286;2023-05-14T09:12:22;11.00;88.40
11597;DHT22;5854;48.072;16.286;2023-05-14T09:14:49;10.90;92.70
11597;DHT22;5854;48.072;16.286;2023-05-14T09:17:17;10.90;90.50
11597;DHT22;5854;48.072;16.286;2023-05-14T09:19:46;10.90;91.20
11597;DHT22;5854;48.072;16.286;2023-05-14T09:22:17;10.70;92.60
11597;DHT22;5854;48.072;16.286;2023-05-14T09:24:45;10.70;91.30
11597;DHT22;5854;48.072;16.286;2023-05-14T09:27:17;10.70;90.90
11597;DHT22;5854;48.072;16.286;2023-05-14T09:29:46;10.80;90.00
11597;DHT22;5854;48.072;16.286;2023-05-14T09:32:13;10.80;89.10
11597;DHT22;5854;48.072;16.286;2023-05-14T09:34:41;10.80;90.20
11597;DHT22;5854;48.072;16.286;2023-05-14T09:37:09;10.80;91.10
11597;DHT22;5854;48.072;16.286;2023-05-14T09:39:37;10.80;93.00
11597;DHT22;5854;48.072;16.286;2023-05-14T09:42:05;10.80;91.90
11597;DHT22;5854;48.072;16.286;2023-05-14T09:44:32;10.70;93.80
11597;DHT22;5854;48.072;16.286;2023-05-14T09:47:00;10.70;94.20
11597;DHT22;5854;48.072;16.286;2023-05-14T09:49:29;10.70;88.70
11597;DHT22;5854;48.072;16.286;2023-05-14T09:52:00;10.80;87.00
11597;DHT22;5854;48.072;16.286;2023-05-14T09:54:32;10.80;87.40
11597;DHT22;5854;48.072;16.286;2023-05-14T09:56:59;10.90;88.30
11597;DHT22;5854;48.072;16.286;2023-05-14T09:59:28;10.90;86.60
11597;DHT22;5854;48.072;16.286;2023-05-14T10:01:56;10.80;86.40
11597;DHT22;5854;48.072;16.286;2023-05-14T10:04:24;10.80;92.40
11597;DHT22;5854;48.072;16.286;2023-05-14T10:06:52;10.90;91.90
11597;DHT22;5854;48.072;16.286;2023-05-14T10:09:20;10.90;95.60
11597;DHT22;5854;48.072;16.286;2023-05-14T10:11:52;10.90;93.30
11597;DHT22;5854;48.072;16.286;2023-05-14T10:14:25;10.90;91.80
11597;DHT22;5854;48.072;16.286;2023-05-14T10:16:58;11.00;93.10
11597;DHT22;5854;48.072;16.286;2023-05-14T10:19:27;11.00;91.40
11597;DHT22;5854;48.072;16.286;2023-05-14T10:22:06;11.00;88.00
11597;DHT22;5854;48.072;16.286;2023-05-14T10:24:33;11.00;82.90
11597;DHT22;5854;48.072;16.286;2023-05-14T10:27:05;11.10;85.60
11597;DHT22;5854;48.072;16.286;2023-05-14T10:29:33;11.10;85.80
11597;DHT22;5854;48.072;16.286;2023-05-14T10:32:04;11.10;86.40
11597;DHT22;5854;48.072;16.286;2023-05-14T10:34:36;11.10;86.90
11597;DHT22;5854;48.072;16.286;2023-05-14T10:37:07;11.10;81.10
11597;DHT22;5854;48.072;16.286;2023-05-14T10:39:40;11.20;88.60
11597;DHT22;5854;48.072;16.286;2023-05-14T10:42:11;11.20;91.10
11597;DHT22;5854;48.072;16.286;2023-05-14T10:44:44;11.20;89.50
11597;DHT22;5854;48.072;16.286;2023-05-14T10:47:14;11.20;86.40
11597;DHT22;5854;48.072;16.286;2023-05-14T10:49:45;11.20;91.80
11597;DHT22;5854;48.072;16.286;2023-05-14T10:52:16;11.00;90.20
11597;DHT22;5854;48.072;16.286;2023-05-14T10:54:48;11.00;90.40
11597;DHT22;5854;48.072;16.286;2023-05-14T10:57:19;11.00;90.00
11597;DHT22;5854;48.072;16.286;2023-05-14T10:59:51;11.10;88.50
11597;DHT22;5854;48.072;16.286;2023-05-14T11:02:21;11.10;90.90
11597;DHT22;5854;48.072;16.286;2023-05-14T11:04:57;11.20;84.20
11597;DHT22;5854;48.072;16.286;2023-05-14T11:07:27;11.10;93.50
11597;DHT22;5854;48.072;16.286;2023-05-14T11:10:00;11.10;97.70
11597;DHT22;5854;48.072;16.286;2023-05-14T11:12:30;11.10;92.50
11597;DHT22;5854;48.072;16.286;2023-05-14T11:15:00;11.10;82.80
11597;DHT22;5854;48.072;16.286;2023-05-14T11:17:29;11.10;90.60
11597;DHT22;5854;48.072;16.286;2023-05-14T11:19:57;11.10;90.80
11597;DHT22;5854;48.072;16.286;2023-05-14T11:22:25;11.20;97.60
11597;DHT22;5854;48.072;16.286;2023-05-14T11:24:52;11.20;94.00
11597;DHT22;5854;48.072;16.286;2023-05-14T11:27:20;11.10;95.20
11597;DHT22;5854;48.072;16.286;2023-05-14T11:29:49;11.10;92.60
11597;DHT22;5854;48.072;16.286;2023-05-14T11:32:18;11.20;93.10
11597;DHT22;5854;48.072;16.286;2023-05-14T11:34:45;11.10;87.60
11597;DHT22;5854;48.072;16.286;2023-05-14T11:37:14;11.20;86.70
11597;DHT22;5854;48.072;16.286;2023-05-14T11:39:46;11.20;88.80
11597;DHT22;5854;48.072;16.286;2023-05-14T11:42:15;11.20;90.00
11597;DHT22;5854;48.072;16.286;2023-05-14T11:44:45;11.20;84.50
11597;DHT22;5854;48.072;16.286;2023-05-14T11:47:15;11.20;89.20
11597;DHT22;5854;48.072;16.286;2023-05-14T11:49:43;11.20;85.40
11597;DHT22;5854;48.072;16.286;2023-05-14T11:52:12;11.20;83.30
11597;DHT22;5854;48.072;16.286;2023-05-14T11:54:40;11.20;93.50
11597;DHT22;5854;48.072;16.286;2023-05-14T11:57:10;11.20;92.90
11597;DHT22;5854;48.072;16.286;2023-05-14T11:59:39;11.20;92.60
11597;DHT22;5854;48.072;16.286;2023-05-14T12:02:09;11.20;91.30
11597;DHT22;5854;48.072;16.286;2023-05-14T12:04:38;11.20;89.10
11597;DHT22;5854;48.072;16.286;2023-05-14T12:07:10;11.30;89.60
11597;DHT22;5854;48.072;16.286;2023-05-14T12:09:40;11.30;95.80
11597;DHT22;5854;48.072;16.286;2023-05-14T12:12:09;11.40;99.60
11597;DHT22;5854;48.072;16.286;2023-05-14T12:14:37;11.40;95.80
11597;DHT22;5854;48.072;16.286;2023-05-14T12:17:13;11.40;92.40
11597;DHT22;5854;48.072;16.286;2023-05-14T12:19:44;11.50;97.10
11597;DHT22;5854;48.072;16.286;2023-05-14T12:22:14;11.50;97.20
11597;DHT22;5854;48.072;16.286;2023-05-14T12:24:52;11.40;96.40
11597;DHT22;5854;48.072;16.286;2023-05-14T12:27:21;11.40;96.80
11597;DHT22;5854;48.072;16.286;2023-05-14T12:29:49;11.40;91.20
11597;DHT22;5854;48.072;16.286;2023-05-14T12:32:17;11.40;89.20
11597;DHT22;5854;48.072;16.286;2023-05-14T12:34:46;11.40;94.40
11597;DHT22;5854;48.072;16.286;2023-05-14T12:37:13;11.40;97.90
11597;DHT22;5854;48.072;16.286;2023-05-14T12:39:40;11.40;88.00
11597;DHT22;5854;48.072;16.286;2023-05-14T12:42:07;11.50;95.30
11597;DHT22;5854;48.072;16.286;2023-05-14T12:44:35;11.50;98.80
11597;DHT22;5854;48.072;16.286;2023-05-14T12:47:02;11.50;89.90
11597;DHT22;5854;48.072;16.286;2023-05-14T12:49:29;11.50;96.70
11597;DHT22;5854;48.072;16.286;2023-05-14T12:51:57;11.40;89.70
11597;DHT22;5854;48.072;16.286;2023-05-14T12:54:24;11.40;91.90
11597;DHT22;5854;48.072;16.286;2023-05-14T12:56:51;11.40;96.00
11597;DHT22;5854;48.072;16.286;2023-05-14T12:59:18;11.40;99.60
11597;DHT22;5854;48.072;16.286;2023-05-14T13:01:45;11.30;97.10
11597;DHT22;5854;48.072;16.286;2023-05-14T13:04:13;11.30;87.40
11597;DHT22;5854;48.072;16.286;2023-05-14T13:06:40;11.40;90.00
11597;DHT22;5854;48.072;16.286;2023-05-14T13:09:09;11.40;89.80
11597;DHT22;5854;48.072;16.286;2023-05-14T13:11:36;11.50;99.90
11597;DHT22;5854;48.072;16.286;2023-05-14T13:14:03;11.60;99.90
11597;DHT22;5854;48.072;16.286;2023-05-14T13:16:30;11.50;99.90
11597;DHT22;5854;48.072;16.286;2023-05-14T13:18:57;11.60;99.30
11597;DHT22;5854;48.072;16.286;2023-05-14T13:21:24;11.70;99.90
11597;DHT22;5854;48.072;16.286;2023-05-14T13:23:51;11.90;99.40
11597;DHT22;5854;48.072;16.286;2023-05-14T13:26:20;11.80;96.90
11597;DHT22;5854;48.072;16.286;2023-05-14T13:28:47;11.60;98.00
11597;DHT22;5854;48.072;16.286;2023-05-14T13:31:14;11.60;97.30
11597;DHT22;5854;48.072;16.286;2023-05-14T13:33:43;11.60;99.90
11597;DHT22;5854;48.072;16.286;2023-05-14T13:36:13;11.60;99.90
11597;DHT22;5854;48.072;16.286;2023-05-14T13:38:40;11.50;98.60
11597;DHT22;5854;48.072;16.286;2023-05-14T13:41:07;11.60;91.90
11597;DHT22;5854;48.072;16.286;2023-05-14T13:43:36;11.60;97.00
11597;DHT22;5854;48.072;16.286;2023-05-14T13:46:04;11.50;98.20
11597;DHT22;5854;48.072;16.286;2023-05-14T13:48:31;11.50;99.90
11597;DHT22;5854;48.072;16.286;2023-05-14T13:50:58;11.50;99.90
11597;DHT22;5854;48.072;16.286;2023-05-14T13:53:25;11.50;99.90
11597;DHT22;5854;48.072;16.286;2023-05-14T13:55:53;11.50;99.90
11597;DHT22;5854;48.072;16.286;2023-05-14T13:58:25;11.50;90.30
11597;DHT22;5854;48.072;16.286;2023-05-14T14:00:54;11.50;97.20
11597;DHT22;5854;48.072;16.286;2023-05-14T14:03:21;11.50;99.10
11597;DHT22;5854;48.072;16.286;2023-05-14T14:05:48;11.50;99.90
11597;DHT22;5854;48.072;16.286;2023-05-14T14:08:16;11.60;99.90
11597;DHT22;5854;48.072;16.286;2023-05-14T14:10:43;11.50;97.90
11597;DHT22;5854;48.072;16.286;2023-05-14T14:13:11;11.50;95.50
11597;DHT22;5854;48.072;16.286;2023-05-14T14:15:38;11.60;99.60
11597;DHT22;5854;48.072;16.286;2023-05-14T14:18:06;11.60;99.20
11597;DHT22;5854;48.072;16.286;2023-05-14T14:20:34;11.50;93.10
11597;DHT22;5854;48.072;16.286;2023-05-14T14:23:01;11.50;99.30
11597;DHT22;5854;48.072;16.286;2023-05-14T14:25:28;11.50;98.10
11597;DHT22;5854;48.072;16.286;2023-05-14T14:27:55;11.50;99.90
11597;DHT22;5854;48.072;16.286;2023-05-14T14:30:22;11.50;99.10
11597;DHT22;5854;48.072;16.286;2023-05-14T14:32:49;11.60;99.90
11597;DHT22;5854;48.072;16.286;2023-05-14T14:35:18;11.60;97.00
11597;DHT22;5854;48.072;16.286;2023-05-14T14:37:46;11.60;97.60
11597;DHT22;5854;48.072;16.286;2023-05-14T14:40:15;11.60;96.40
11597;DHT22;5854;48.072;16.286;2023-05-14T14:42:43;11.60;93.70
11597;DHT22;5854;48.072;16.286;2023-05-14T14:45:10;11.60;93.10
11597;DHT22;5854;48.072;16.286;2023-05-14T14:47:41;11.60;96.30
11597;DHT22;5854;48.072;16.286;2023-05-14T14:50:09;11.70;94.40
11597;DHT22;5854;48.072;16.286;2023-05-14T14:52:38;11.70;98.00
11597;DHT22;5854;48.072;16.286;2023-05-14T14:55:08;11.70;99.80
11597;DHT22;5854;48.072;16.286;2023-05-14T14:57:35;11.80;99.90
11597;DHT22;5854;48.072;16.286;2023-05-14T15:00:03;11.80;99.90
11597;DHT22;5854;48.072;16.286;2023-05-14T15:02:31;11.70;99.90
11597;DHT22;5854;48.072;16.286;2023-05-14T15:04:59;11.60;99.80
11597;DHT22;5854;48.072;16.286;2023-05-14T15:07:26;11.60;95.70
11597;DHT22;5854;48.072;16.286;2023-05-14T15:09:58;11.60;99.90
11597;DHT22;5854;48.072;16.286;2023-05-14T15:12:25;11.60;98.90
11597;DHT22;5854;48.072;16.286;2023-05-14T15:14:52;11.60;93.90
11597;DHT22;5854;48.072;16.286;2023-05-14T15:17:20;11.60;99.90
11597;DHT22;5854;48.072;16.286;2023-05-14T15:19:47;11.70;99.90
11597;DHT22;5854;48.072;16.286;2023-05-14T15:22:14;11.70;99.90
11597;DHT22;5854;48.072;16.286;2023-05-14T15:24:41;11.60;98.50
11597;DHT22;5854;48.072;16.286;2023-05-14T15:27:10;11.60;96.30
11597;DHT22;5854;48.072;16.286;2023-05-14T15:29:37;11.60;98.60
11597;DHT22;5854;48.072;16.286;2023-05-14T15:32:05;11.60;97.50
11597;DHT22;5854;48.072;16.286;2023-05-14T15:34:32;11.60;94.00
11597;DHT22;5854;48.072;16.286;2023-05-14T15:36:59;11.70;98.70